Hlavní strana
METAR-TAF:

METAR-TAF

Letiště :

Barkley Regional Airport

Paducah, Kentucky, Spojené státy americké

zeměpisná šířka: 37-03-23N, zeměpisná délka: 088-46-26W, výška: 125 m

Aktuální stav počasí

Zpráva byla vytvořena před 34 minutami, v 22:53 UTC
Severozápadní vítr 7 kt
Teplota 17°C
Vlhkost vzduchu 34%
Tlak 1019 hPa
Viditelnost: 16.1 km
Jasno

METAR: KPAH 202253Z 31007KT 10SM CLR 17/01 A3010 RMK AO2 SLP190 T01670011

Čas: 18:27 (23:27 UTC)

Předpověď počasí

Zpráva byla vytvořena před 6 hodinami a 2 minutami, v 17:25 UTC
Předpověď platná od 20 v 18 UTC do 21 v 18 UTC
Severozápadní vítr 15 kt s nárazy do 24 kt
Viditelnost: 10 km
Jasno
Od 21 v 0000 UTC
Severoseverozápadní vítr 13 kt
Viditelnost: 10 km
Jasno
Od 21 v 0900 UTC
Severní vítr 6 kt
Viditelnost: 10 km
Jasno

TAF: KPAH 201725Z 2018/2118 31015G24KT P6SM SKC FM210000 34013KT P6SM SKC FM210900 01006KT P6SM SKC

Stav a předpovědi počasí z více než 4 000 letišť (zprávy METAR a TAF).

Červené a žluté tečky na mapě představují dostupné meteorologické stanice.

Když kurzor umístíte na tečku, zobrazí se název stanice.

Pak kliknutím zobrazíte stav a předpověď počasí.

Chcete-li změnit mapu, kliknutím na zelené tlačítko se znaménkem +mapu přiblížíte, kliknutím na zelené tlačítko se znaménkem – mapu oddálíte a kliknutím na zelené šipky přejdete na sousední mapy.


METAR-TAF: